Time;durP1;ratioP1;P1;durP2;ratioP2;P2;SDS_P1;SDS_P2;PMS_P1;PMS_P2;Temp;Humidity;BMP_temperature;BMP_pressure;BME280_temperature;BME280_humidity;BME280_pressure;Samples;Min_cycle;Max_cycle;Signal;HPM_P1;HPM_P2
2023/05/05 00:00:54;;;;;;;;;;;;;;;11.81;75.72;99723.22;4162687;34;33601;-95
2023/05/05 00:03:52;;;;;;;;;;;;;;;11.70;74.97;99725.94;4184884;34;34300;-95
2023/05/05 00:06:50;;;;;;;;;;;;;;;11.20;80.76;99735.88;4189059;34;35980;-95
2023/05/05 00:09:18;;;;;;;;;;;;;;;11.53;77.06;99718.25;4185148;34;35520;-94
2023/05/05 00:11:46;;;;;;;;;;;;;;;11.65;75.45;99721.66;4173214;34;33430;-95
2023/05/05 00:14:14;;;;;;;;;;;;;;;11.35;77.82;99723.62;4182107;34;34138;-95
2023/05/05 00:16:43;;;;;;;;;;;;;;;11.51;76.19;99722.62;4181433;34;36443;-95
2023/05/05 00:19:11;;;;;;;;;;;;;;;11.07;80.33;99730.78;4170245;34;34477;-95
2023/05/05 00:21:42;;;;;;;;;;;;;;;10.53;84.09;99723.25;4182352;28;33386;-95
2023/05/05 00:24:12;;;;;;;;;;;;;;;10.71;81.25;99720.56;4164893;29;34149;-96
2023/05/05 00:26:42;;;;;;;;;;;;;;;10.65;80.21;99711.91;4168480;28;35108;-95
2023/05/05 00:29:17;;;;;;;;;;;;;;;11.20;76.61;99709.81;4151036;34;33156;-95
2023/05/05 00:31:46;;;;;;;;;;;;;;;10.68;80.73;99720.59;4188482;29;33844;31
2023/05/05 00:34:17;;;;;;;;;;;;;;;10.62;81.53;99711.06;4157084;34;34084;-95
2023/05/05 00:36:47;;;;;;;;;;;;;;;11.13;77.31;99718.56;4170505;28;35118;31
2023/05/05 00:39:18;;;;;;;;;;;;;;;10.93;79.83;99710.87;4157570;29;33362;-95
2023/05/05 00:42:00;;;;;;;;;;;;;;;11.19;78.75;99710.72;4196660;34;34870;-96
2023/05/05 00:44:45;;;;;;;;;;;;;;;10.55;82.24;99719.78;4202633;28;34844;-95
2023/05/05 00:47:21;;;;;;;;;;;;;;;10.56;82.35;99718.87;4200744;34;35065;-94
2023/05/05 00:49:51;;;;;;;;;;;;;;;10.42;83.51;99716.34;4174655;34;33688;-95
2023/05/05 00:52:43;;;;;;;;;;;;;;;10.05;85.46;99719.03;4188546;34;33367;-95
2023/05/05 00:55:19;;;;;;;;;;;;;;;10.13;85.59;99716.44;4185382;34;35118;-94
2023/05/05 00:57:47;;;;;;;;;;;;;;;9.75;87.20;99706.09;4196907;34;35251;-95
2023/05/05 01:00:15;;;;;;;;;;;;;;;9.90;88.05;99703.50;4183489;34;35145;-95
2023/05/05 01:02:43;;;;;;;;;;;;;;;10.00;85.12;99699.97;4194086;34;33376;-95
2023/05/05 01:05:12;;;;;;;;;;;;;;;9.91;85.48;99705.19;4195894;34;34241;-95
2023/05/05 01:07:47;;;;;;;;;;;;;;;9.83;85.64;99696.56;4183460;34;36054;-95
2023/05/05 01:10:27;;;;;;;;;;;;;;;9.51;88.97;99704.37;4195943;34;33635;-95
2023/05/05 01:13:16;;;;;;;;;;;;;;;9.93;86.34;99702.59;4187964;28;32760;-94
2023/05/05 01:16:08;;;;;;;;;;;;;;;10.25;81.77;99702.50;4164702;34;32329;-94
2023/05/05 01:18:47;;;;;;;;;;;;;;;10.67;79.72;99689.34;4222169;28;35316;-95
2023/05/05 01:21:49;;;;;;;;;;;;;;;9.91;85.55;99694.78;4198796;28;34971;-95
2023/05/05 01:24:47;;;;;;;;;;;;;;;10.13;84.58;99698.22;4198078;28;33614;-95
2023/05/05 01:27:30;;;;;;;;;;;;;;;10.01;84.87;99691.31;4185499;34;34098;-95
2023/05/05 01:30:24;;;;;;;;;;;;;;;9.74;86.02;99692.25;4186030;34;35677;-95
2023/05/05 01:33:06;;;;;;;;;;;;;;;9.59;86.63;99697.47;4172953;34;34473;-96
2023/05/05 01:35:41;;;;;;;;;;;;;;;9.20;90.80;99702.66;4183288;34;33770;-95
2023/05/05 01:38:11;;;;;;;;;;;;;;;9.80;87.36;99691.38;4170833;34;32794;-95
2023/05/05 01:40:43;;;;;;;;;;;;;;;9.89;85.65;99693.09;4171634;34;34612;-95
2023/05/05 01:43:12;;;;;;;;;;;;;;;9.63;86.53;99689.63;4181866;34;34709;-95
2023/05/05 01:45:52;;;;;;;;;;;;;;;9.18;89.04;99694.00;4185019;34;33698;-96
2023/05/05 01:48:23;;;;;;;;;;;;;;;9.25;89.36;99687.94;4184828;34;34026;-95
2023/05/05 01:51:01;;;;;;;;;;;;;;;9.24;90.60;99683.59;4183566;34;35065;-95
2023/05/05 01:53:36;;;;;;;;;;;;;;;9.33;88.31;99693.12;4174430;34;33515;-95
2023/05/05 01:56:23;;;;;;;;;;;;;;;9.04;90.47;99693.97;4175501;34;33456;-95
2023/05/05 01:58:56;;;;;;;;;;;;;;;9.04;90.58;99690.53;4184934;34;34308;-94
2023/05/05 02:01:30;;;;;;;;;;;;;;;9.26;89.56;99694.00;4185446;34;35615;-93
2023/05/05 02:04:21;;;;;;;;;;;;;;;9.41;87.17;99687.94;4172809;34;35038;-94
2023/05/05 02:06:51;;;;;;;;;;;;;;;9.01;91.39;99686.19;4187087;28;33109;31
2023/05/05 02:09:41;;;;;;;;;;;;;;;9.20;89.17;99684.47;4154434;34;33998;-93
2023/05/05 02:12:10;;;;;;;;;;;;;;;9.67;86.59;99686.19;4168814;34;35054;-95
2023/05/05 02:14:53;;;;;;;;;;;;;;;9.47;86.62;99683.59;4189920;28;34941;-94
2023/05/05 02:17:46;;;;;;;;;;;;;;;9.47;86.02;99687.94;4182508;34;34333;-95
2023/05/05 02:20:33;;;;;;;;;;;;;;;9.86;84.38;99686.13;4202365;34;34276;-95
2023/05/05 02:23:06;;;;;;;;;;;;;;;10.19;81.03;99684.31;4189623;34;35345;-94
2023/05/05 02:25:53;;;;;;;;;;;;;;;10.38;78.24;99686.00;4190867;34;35085;-94
2023/05/05 02:28:52;;;;;;;;;;;;;;;10.66;76.70;99683.28;4199799;34;33254;-95
2023/05/05 02:31:58;;;;;;;;;;;;;;;10.23;80.87;99680.81;4205465;28;33986;31
2023/05/05 02:34:27;;;;;;;;;;;;;;;9.44;84.83;99681.00;4154927;34;34923;-95
2023/05/05 02:37:00;;;;;;;;;;;;;;;10.49;76.54;99677.28;4146325;34;35009;-95
2023/05/05 02:39:57;;;;;;;;;;;;;;;10.27;80.17;99674.75;4158495;34;34338;-95
2023/05/05 02:42:28;;;;;;;;;;;;;;;9.96;81.78;99687.00;4175721;28;34359;-95
2023/05/05 02:44:58;;;;;;;;;;;;;;;10.12;82.52;99680.84;4172996;28;36177;-95
2023/05/05 02:47:36;;;;;;;;;;;;;;;10.17;80.98;99678.25;4150670;29;33818;-95
2023/05/05 02:50:05;;;;;;;;;;;;;;;9.51;84.83;99684.44;4174434;28;33218;-95
2023/05/05 02:52:35;;;;;;;;;;;;;;;9.93;83.41;99680.03;4172125;29;34557;-95
2023/05/05 02:55:05;;;;;;;;;;;;;;;10.18;80.75;99683.47;4189080;28;35275;-95
2023/05/05 02:58:18;;;;;;;;;;;;;;;9.55;84.23;99681.00;4184048;29;35219;-95
2023/05/05 03:01:26;;;;;;;;;;;;;;;9.25;87.22;99677.53;4194688;28;34897;-95
2023/05/05 03:03:59;;;;;;;;;;;;;;;9.66;84.16;99683.59;4158241;34;32388;-95
2023/05/05 03:06:30;;;;;;;;;;;;;;;9.75;82.90;99677.50;4187742;34;34833;-95
2023/05/05 03:09:07;;;;;;;;;;;;;;;9.24;86.89;99683.59;4187802;34;33860;-96
2023/05/05 03:11:43;;;;;;;;;;;;;;;9.13;87.49;99680.13;4197790;34;33113;-95
2023/05/05 03:14:42;;;;;;;;;;;;;;;9.11;88.29;99684.47;4197216;34;34251;-96
2023/05/05 03:17:15;;;;;;;;;;;;;;;8.94;88.55;99681.00;4186759;34;34553;-95
2023/05/05 03:19:52;;;;;;;;;;;;;;;9.15;87.10;99674.94;4177104;34;34824;-95
2023/05/05 03:22:21;;;;;;;;;;;;;;;9.37;85.97;99675.78;4191041;34;33575;-95
2023/05/05 03:24:51;;;;;;;;;;;;;;;8.85;88.29;99672.31;4183480;28;34950;-95
2023/05/05 03:27:44;;;;;;;;;;;;;;;8.94;89.69;99675.78;4196805;28;35298;-96
2023/05/05 03:30:13;;;;;;;;;;;;;;;8.65;91.17;99676.62;4176878;34;34972;-96
2023/05/05 03:32:45;;;;;;;;;;;;;;;9.33;86.47;99679.28;4176663;34;33729;-95
2023/05/05 03:35:15;;;;;;;;;;;;;;;9.35;85.80;99680.13;4177182;34;34669;-95
2023/05/05 03:37:48;;;;;;;;;;;;;;;8.95;88.78;99678.41;4201479;34;35042;-96
2023/05/05 03:40:17;;;;;;;;;;;;;;;9.15;87.72;99683.59;4172488;34;35227;-95
2023/05/05 03:42:47;;;;;;;;;;;;;;;9.03;86.47;99681.00;4165309;34;33338;-95
2023/05/05 03:45:21;;;;;;;;;;;;;;;9.27;86.00;99675.81;4163389;34;33672;-95
2023/05/05 03:47:50;;;;;;;;;;;;;;;9.15;87.89;99686.19;4185065;34;35288;-95
2023/05/05 03:50:47;;;;;;;;;;;;;;;9.21;86.64;99681.03;4176366;34;34683;-95
2023/05/05 03:53:33;;;;;;;;;;;;;;;9.98;82.22;99686.09;4172895;34;32621;-95
2023/05/05 03:56:11;;;;;;;;;;;;;;;9.05;89.04;99687.94;4183567;34;34263;-96
2023/05/05 03:58:39;;;;;;;;;;;;;;;9.27;89.03;99685.34;4194453;28;35200;-95
2023/05/05 04:01:22;;;;;;;;;;;;;;;9.20;91.25;99696.59;4175740;34;34399;-95
2023/05/05 04:03:51;;;;;;;;;;;;;;;9.68;89.97;99702.63;4197259;34;33845;-95
2023/05/05 04:06:30;;;;;;;;;;;;;;;9.70;89.86;99700.91;4183514;34;34263;-95
2023/05/05 04:09:04;;;;;;;;;;;;;;;9.93;89.56;99703.44;4173166;34;36094;-95
2023/05/05 04:11:32;;;;;;;;;;;;;;;10.17;87.62;99696.47;4184027;34;33915;-94
2023/05/05 04:14:02;;;;;;;;;;;;;;;10.00;87.10;99705.16;4180132;28;33693;-94
2023/05/05 04:16:51;;;;;;;;;;;;;;;10.11;88.33;99701.69;4192903;28;34669;-95
2023/05/05 04:19:42;;;;;;;;;;;;;;;10.61;85.12;99696.31;4174779;34;34001;-95
2023/05/05 04:22:10;;;;;;;;;;;;;;;11.36;79.22;99699.28;4204039;28;35231;-96
2023/05/05 04:24:39;;;;;;;;;;;;;;;10.71;84.97;99693.63;4185672;34;34571;-96
2023/05/05 04:27:11;;;;;;;;;;;;;;;11.30;79.06;99704.56;4183599;34;34442;-95
2023/05/05 04:29:40;;;;;;;;;;;;;;;10.85;85.23;99701.38;4201828;34;36206;-95
2023/05/05 04:32:11;;;;;;;;;;;;;;;11.49;77.00;99700.91;4199067;34;34467;-95
2023/05/05 04:34:40;;;;;;;;;;;;;;;11.64;77.73;99702.50;4204381;28;33372;-95
2023/05/05 04:37:31;;;;;;;;;;;;;;;11.82;78.33;99708.44;4199430;34;34960;-95
2023/05/05 04:39:59;;;;;;;;;;;;;;;11.73;80.43;99706.78;4201115;34;35040;-96
2023/05/05 04:42:31;;;;;;;;;;;;;;;11.93;81.06;99702.25;4186842;28;35154;-94
2023/05/05 04:44:59;;;;;;;;;;;;;;;11.80;82.39;99708.44;4162523;34;33872;-95
2023/05/05 04:47:30;;;;;;;;;;;;;;;12.49;77.40;99709.44;4185666;34;34028;-94
2023/05/05 04:50:15;;;;;;;;;;;;;;;12.57;78.46;99710.22;4202067;28;35709;-94
2023/05/05 04:52:55;;;;;;;;;;;;;;;12.76;76.87;99716.06;4202882;28;34644;-94
2023/05/05 04:55:39;;;;;;;;;;;;;;;13.12;75.92;99718.19;4197698;34;33527;-93
2023/05/05 04:58:18;;;;;;;;;;;;;;;13.48;72.24;99718.50;4189253;34;33927;-95
2023/05/05 05:00:56;;;;;;;;;;;;;;;13.58;73.06;99717.47;4188176;34;36241;-93
2023/05/05 05:03:43;;;;;;;;;;;;;;;13.97;72.57;99723.75;4188521;34;34788;-93
2023/05/05 05:06:41;;;;;;;;;;;;;;;13.94;70.74;99715.09;4284981;28;33099;-93
2023/05/05 05:09:36;;;;;;;;;;;;;;;14.92;66.43;99723.59;4180989;34;34106;-93
2023/05/05 05:12:41;;;;;;;;;;;;;;;15.86;56.90;99723.97;4264942;28;35648;-93
2023/05/05 05:15:45;;;;;;;;;;;;;;;16.10;53.59;99727.72;4188084;28;34318;-92
2023/05/05 05:18:22;;;;;;;;;;;;;;;16.12;52.05;99738.19;4203898;28;33711;-94
2023/05/05 05:21:30;;;;;;;;;;;;;;;16.84;50.05;99730.91;3714473;34;16886750;-93
2023/05/05 05:24:37;;;;;;;;;;;;;;;17.09;51.14;99729.28;4330068;28;35616;-94
2023/05/05 05:27:26;;;;;;;;;;;;;;;17.08;47.68;99725.78;4202781;34;33462;-94
2023/05/05 05:30:02;;;;;;;;;;;;;;;17.73;53.26;99728.97;4206292;28;34569;-93
2023/05/05 05:32:49;;;;;;;;;;;;;;;17.32;58.07;99736.47;4204498;28;35417;-93
2023/05/05 05:35:20;;;;;;;;;;;;;;;17.91;53.60;99732.75;4165852;28;33170;-94
2023/05/05 05:37:49;;;;;;;;;;;;;;;18.83;51.03;99741.75;4163397;28;33541;-94
2023/05/05 05:40:20;;;;;;;;;;;;;;;19.05;45.51;99741.81;4185908;34;33824;-93
2023/05/05 05:42:48;;;;;;;;;;;;;;;19.94;44.45;99751.41;4177893;28;35406;-94
2023/05/05 05:45:17;;;;;;;;;;;;;;;19.60;44.31;99755.41;4158139;34;34744;-94
2023/05/05 05:47:46;;;;;;;;;;;;;;;19.53;41.02;99743.38;4181134;34;33172;-94
2023/05/05 05:50:14;;;;;;;;;;;;;;;19.62;44.26;99739.50;4178173;34;35016;-94
2023/05/05 05:52:42;;;;;;;;;;;;;;;20.24;41.42;99746.56;4190776;34;36073;-93
2023/05/05 05:55:10;;;;;;;;;;;;;;;19.83;41.81;99746.56;4178865;34;34338;-94
2023/05/05 05:57:55;;;;;;;;;;;;;;;20.42;43.04;99744.03;4183273;34;33554;-94
2023/05/05 06:00:25;;;;;;;;;;;;;;;19.83;41.41;99738.62;4186579;34;34315;-94
2023/05/05 06:03:00;;;;;;;;;;;;;;;19.07;43.44;99745.25;4198065;34;36626;-94
2023/05/05 06:05:35;;;;;;;;;;;;;;;18.87;43.65;99740.75;4199062;34;34778;-93
2023/05/05 06:08:14;;;;;;;;;;;;;;;20.34;44.07;99748.81;4200728;34;33585;-93
2023/05/05 06:11:18;;;;;;;;;;;;;;;20.17;38.92;99739.84;4181952;34;33451;-92
2023/05/05 06:14:03;;;;;;;;;;;;;;;20.12;39.37;99749.75;4181572;34;35063;-92
2023/05/05 06:16:39;;;;;;;;;;;;;;;20.03;43.25;99750.13;4198059;28;35036;-93
2023/05/05 06:19:10;;;;;;;;;;;;;;;19.73;42.80;99741.69;4196433;34;34297;-92
2023/05/05 06:21:42;;;;;;;;;;;;;;;20.29;40.79;99748.13;4197995;34;34020;-93
2023/05/05 06:24:27;;;;;;;;;;;;;;;20.85;39.63;99742.09;4198896;34;35589;-94
2023/05/05 06:26:55;;;;;;;;;;;;;;;20.95;38.91;99735.44;4231817;28;34929;-94
2023/05/05 06:29:24;;;;;;;;;;;;;;;20.77;39.42;99739.81;4170024;34;34176;-94
2023/05/05 06:31:55;;;;;;;;;;;;;;;20.77;39.85;99738.94;4181341;34;34283;-94
2023/05/05 06:34:25;;;;;;;;;;;;;;;19.99;45.44;99736.19;4195564;34;36167;-93
2023/05/05 06:36:53;;;;;;;;;;;;;;;20.00;47.32;99732.63;4185185;34;35232;-94
2023/05/05 06:39:22;;;;;;;;;;;;;;;20.87;41.07;99734.94;4196110;34;33992;-95
2023/05/05 06:41:53;;;;;;;;;;;;;;;19.89;45.30;99729.59;4183532;34;35093;-95
2023/05/05 06:44:21;;;;;;;;;;;;;;;20.01;44.33;99733.47;4195870;34;36462;-94
2023/05/05 06:46:50;;;;;;;;;;;;;;;20.34;43.19;99731.12;4185088;34;35413;-93
2023/05/05 06:49:18;;;;;;;;;;;;;;;20.63;39.78;99727.22;4192255;34;33886;-96
2023/05/05 06:51:47;;;;;;;;;;;;;;;21.21;41.06;99728.91;4179683;34;33951;-94
2023/05/05 06:54:16;;;;;;;;;;;;;;;21.44;39.47;99734.00;4192249;34;35015;-94
2023/05/05 06:56:45;;;;;;;;;;;;;;;20.18;40.63;99730.09;4180808;34;34786;-95
2023/05/05 06:59:13;;;;;;;;;;;;;;;20.93;39.90;99736.41;4192547;34;34109;-94
2023/05/05 07:01:41;;;;;;;;;;;;;;;20.86;38.77;99733.22;4185103;28;34295;-95
2023/05/05 07:04:10;;;;;;;;;;;;;;;20.89;39.54;99727.78;4159734;34;35604;-94
2023/05/05 07:06:38;;;;;;;;;;;;;;;20.36;41.48;99733.72;4183704;34;34779;-94
2023/05/05 07:09:15;;;;;;;;;;;;;;;21.31;37.47;99734.59;4170866;34;33322;-93
2023/05/05 07:11:45;;;;;;;;;;;;;;;19.95;41.71;99739.03;4182585;34;34170;-94
2023/05/05 07:14:17;;;;;;;;;;;;;;;20.34;41.75;99743.50;4158536;34;35358;-94
2023/05/05 07:16:45;;;;;;;;;;;;;;;20.72;39.56;99735.63;4181562;34;35480;-93
2023/05/05 07:19:13;;;;;;;;;;;;;;;20.55;41.00;99733.75;4181989;34;34159;-95
2023/05/05 07:21:46;;;;;;;;;;;;;;;21.14;40.84;99739.84;4170910;34;34674;-94
2023/05/05 07:24:14;;;;;;;;;;;;;;;21.08;39.25;99732.22;4160627;34;35325;-95
2023/05/05 07:26:42;;;;;;;;;;;;;;;21.14;39.49;99738.06;4182162;34;34819;-95
2023/05/05 07:29:20;;;;;;;;;;;;;;;21.24;41.84;99733.19;4182503;34;33070;-94
2023/05/05 07:31:47;;;;;;;;;;;;;;;21.73;38.41;99736.06;4185489;34;35410;-95
2023/05/05 07:34:19;;;;;;;;;;;;;;;21.31;40.45;99739.88;4182993;34;35846;-96
2023/05/05 07:36:50;;;;;;;;;;;;;;;23.41;35.68;99742.19;4183083;34;34755;-96
2023/05/05 07:39:22;;;;;;;;;;;;;;;21.92;42.92;99741.31;4181566;34;33958;-95
2023/05/05 07:41:55;;;;;;;;;;;;;;;21.92;41.23;99736.00;4183298;34;34313;-95
2023/05/05 07:44:23;;;;;;;;;;;;;;;23.30;37.31;99737.50;4183640;34;35449;-95
2023/05/05 07:46:51;;;;;;;;;;;;;;;22.63;39.59;99742.06;4181863;34;34765;-95
2023/05/05 07:49:20;;;;;;;;;;;;;;;22.84;40.13;99742.69;4156855;34;32773;-95
2023/05/05 07:51:49;;;;;;;;;;;;;;;23.34;37.82;99735.50;4161532;34;34243;-94
2023/05/05 07:54:20;;;;;;;;;;;;;;;24.65;33.80;99735.72;4143698;34;36179;-94
2023/05/05 07:56:52;;;;;;;;;;;;;;;23.98;37.13;99739.75;4179131;34;34849;-94
2023/05/05 07:59:26;;;;;;;;;;;;;;;22.97;35.98;99740.22;4181392;34;32737;-94
2023/05/05 08:01:54;;;;;;;;;;;;;;;22.53;37.77;99744.34;4167428;34;33960;-94
2023/05/05 08:04:24;;;;;;;;;;;;;;;22.58;40.07;99744.97;4163829;28;35390;-93
2023/05/05 08:07:09;;;;;;;;;;;;;;;23.56;36.04;99740.44;4163187;34;34064;-94
2023/05/05 08:09:42;;;;;;;;;;;;;;;23.83;35.82;99740.66;4196552;34;33346;-93
2023/05/05 08:12:14;;;;;;;;;;;;;;;23.97;34.95;99743.34;4193893;34;34303;-93
2023/05/05 08:14:43;;;;;;;;;;;;;;;24.30;36.49;99739.59;4190877;34;35534;-94
2023/05/05 08:17:14;;;;;;;;;;;;;;;25.12;33.91;99732.69;4170933;34;34576;-94
2023/05/05 08:19:46;;;;;;;;;;;;;;;24.85;36.34;99734.44;4176597;34;33648;-92
2023/05/05 08:22:14;;;;;;;;;;;;;;;22.74;39.14;99739.69;4162077;34;34119;-94
2023/05/05 08:24:58;;;;;;;;;;;;;;;23.16;39.50;99735.59;4176679;34;35664;-94
2023/05/05 08:27:34;;;;;;;;;;;;;;;23.51;38.13;99738.06;4169110;34;35642;-94
2023/05/05 08:30:02;;;;;;;;;;;;;;;22.80;39.20;99744.66;4197645;34;33022;-94
2023/05/05 08:32:33;;;;;;;;;;;;;;;24.26;36.25;99731.88;4196759;34;34882;-94
2023/05/05 08:35:17;;;;;;;;;;;;;;;23.59;39.02;99733.13;4186999;28;37430;-94
2023/05/05 08:37:58;;;;;;;;;;;;;;;23.48;38.90;99740.88;4170267;28;34721;-93
2023/05/05 08:40:42;;;;;;;;;;;;;;;24.47;39.29;99737.69;4177870;28;33470;-93
2023/05/05 08:43:10;;;;;;;;;;;;;;;23.77;38.31;99744.50;4175720;34;33822;-93
2023/05/05 08:45:41;;;;;;;;;;;;;;;23.44;37.19;99734.03;4176622;34;33856;-92
2023/05/05 08:48:13;;;;;;;;;;;;;;;24.46;40.02;99727.97;4177122;34;34326;-92
2023/05/05 08:50:54;;;;;;;;;;;;;;;23.36;38.87;99730.97;4162705;34;33454;-94
2023/05/05 08:53:30;;;;;;;;;;;;;;;25.35;35.39;99725.03;4148862;34;33269;-92
2023/05/05 08:56:02;;;;;;;;;;;;;;;24.78;36.41;99728.69;4168301;34;34845;-93
2023/05/05 08:58:31;;;;;;;;;;;;;;;25.38;37.59;99735.50;4183754;34;34675;-93
2023/05/05 09:01:00;;;;;;;;;;;;;;;24.14;36.19;99738.81;4158763;34;32815;-94
2023/05/05 09:03:31;;;;;;;;;;;;;;;25.58;33.77;99730.66;4149394;34;35156;-93
2023/05/05 09:06:06;;;;;;;;;;;;;;;25.84;35.00;99732.41;4187639;28;35331;-93
2023/05/05 09:08:51;;;;;;;;;;;;;;;24.82;33.98;99721.34;4176704;28;34816;-93
2023/05/05 09:11:34;;;;;;;;;;;;;;;24.19;39.04;99720.75;4170379;34;32992;-95
2023/05/05 09:14:13;;;;;;;;;;;;;;;26.51;36.09;99723.38;4168703;34;35068;-91
2023/05/05 09:16:43;;;;;;;;;;;;;;;25.30;36.32;99713.81;4186651;28;34992;-93
2023/05/05 09:19:18;;;;;;;;;;;;;;;24.16;38.11;99720.94;4196659;34;34443;-91
2023/05/05 09:22:08;;;;;;;;;;;;;;;24.12;38.73;99716.75;4219268;28;34181;-93
2023/05/05 09:24:55;;;;;;;;;;;;;;;25.01;34.79;99713.88;4197873;28;35415;-92
2023/05/05 09:27:55;;;;;;;;;;;;;;;26.06;35.47;99707.78;4187874;28;34719;-92
2023/05/05 09:30:36;;;;;;;;;;;;;;;25.20;35.26;99704.66;4193682;28;34985;-92
2023/05/05 09:33:30;;;;;;;;;;;;;;;25.99;34.02;99705.66;4196541;28;33955;-93
2023/05/05 09:40:10;;;;;;;;;;;;;;;26.14;37.03;99691.25;4172586;34;35369;-93
2023/05/05 09:43:05;;;;;;;;;;;;;;;25.36;35.66;99700.09;4170567;34;34072;-93
2023/05/05 09:45:47;;;;;;;;;;;;;;;26.39;34.89;99698.38;4180207;28;33314;-93
2023/05/05 09:49:02;;;;;;;;;;;;;;;27.24;36.61;99697.63;4184524;28;33986;-92
2023/05/05 09:51:42;;;;;;;;;;;;;;;27.75;35.32;99700.03;4180574;28;35011;-93
2023/05/05 09:54:27;;;;;;;;;;;;;;;27.57;32.58;99690.75;4201705;28;35390;-92
2023/05/05 09:56:57;;;;;;;;;;;;;;;25.39;33.86;99689.19;4199298;34;33493;-93
2023/05/05 09:59:28;;;;;;;;;;;;;;;24.85;35.02;99679.38;4197926;34;33851;-93
2023/05/05 10:02:09;;;;;;;;;;;;;;;26.15;32.36;99686.75;4186970;34;35451;-94
2023/05/05 10:04:40;;;;;;;;;;;;;;;25.65;33.89;99681.28;4187037;34;35421;-93
2023/05/05 10:07:26;;;;;;;;;;;;;;;23.39;39.01;99678.50;4185946;34;33299;-93
2023/05/05 10:09:55;;;;;;;;;;;;;;;24.07;39.23;99679.78;4198642;34;34030;-93
2023/05/05 10:12:24;;;;;;;;;;;;;;;25.35;36.80;99675.22;4197659;34;35688;-93
2023/05/05 10:14:53;;;;;;;;;;;;;;;26.32;35.77;99672.25;4182814;34;35085;-92
2023/05/05 10:17:25;;;;;;;;;;;;;;;24.83;36.48;99675.09;4184288;34;33550;-94
2023/05/05 10:19:55;;;;;;;;;;;;;;;24.74;38.82;99674.75;4194409;34;34236;-93
2023/05/05 10:22:38;;;;;;;;;;;;;;;25.87;37.82;99681.50;4183473;34;35381;-93
2023/05/05 10:25:09;;;;;;;;;;;;;;;25.00;38.32;99679.34;4194793;34;36111;-93
2023/05/05 10:27:45;;;;;;;;;;;;;;;24.17;39.30;99669.44;4197618;34;34594;-92
2023/05/05 10:30:25;;;;;;;;;;;;;;;23.65;40.51;99671.63;4187181;34;32703;-91
2023/05/05 10:32:58;;;;;;;;;;;;;;;24.07;38.11;99670.97;4197940;34;36333;-91
2023/05/05 10:35:50;;;;;;;;;;;;;;;24.31;37.11;99656.13;4199079;34;34990;-90
2023/05/05 10:38:26;;;;;;;;;;;;;;;24.12;36.64;99661.72;4203394;34;33387;-90
2023/05/05 10:40:55;;;;;;;;;;;;;;;23.48;40.29;99661.16;4211567;34;33803;-92
2023/05/05 10:43:28;;;;;;;;;;;;;;;24.29;41.71;99647.38;4199817;34;35277;-90
2023/05/05 10:45:57;;;;;;;;;;;;;;;24.17;41.27;99649.00;4213692;34;35378;-90
2023/05/05 10:48:38;;;;;;;;;;;;;;;23.34;43.67;99650.47;4211428;34;32963;-91
2023/05/05 10:51:11;;;;;;;;;;;;;;;22.68;46.15;99645.31;4200036;34;34395;-90
2023/05/05 10:54:09;;;;;;;;;;;;;;;23.44;42.01;99641.03;4199374;34;35308;-90
2023/05/05 10:56:40;;;;;;;;;;;;;;;22.69;45.18;99641.69;4197026;34;35088;-90
2023/05/05 10:59:30;;;;;;;;;;;;;;;23.54;44.09;99638.66;4211897;34;33829;-90
2023/05/05 11:01:59;;;;;;;;;;;;;;;24.69;39.58;99628.91;4219365;28;34152;-91
2023/05/05 11:04:29;;;;;;;;;;;;;;;25.29;41.60;99632.12;4179563;28;34939;-91
2023/05/05 11:07:14;;;;;;;;;;;;;;;25.57;39.91;99631.09;4177564;28;35302;-91
2023/05/05 11:10:05;;;;;;;;;;;;;;;27.05;36.26;99625.97;4203380;28;32404;-90
2023/05/05 11:12:51;;;;;;;;;;;;;;;28.37;29.63;99625.66;4258522;28;34352;-90
2023/05/05 11:15:51;;;;;;;;;;;;;;;27.59;35.12;99619.25;4249069;28;35890;-90
2023/05/05 11:18:35;;;;;;;;;;;;;;;28.04;32.53;99613.13;4190732;34;35011;-90
2023/05/05 11:21:18;;;;;;;;;;;;;;;27.62;30.77;99616.34;4186943;34;33408;-92
2023/05/05 11:23:47;;;;;;;;;;;;;;;28.36;29.78;99607.84;4184412;34;34043;-91
2023/05/05 11:26:20;;;;;;;;;;;;;;;27.57;31.87;99611.34;4187031;34;35259;-89
2023/05/05 11:29:00;;;;;;;;;;;;;;;26.91;34.08;99608.28;4195023;34;34353;-91
2023/05/05 11:31:29;;;;;;;;;;;;;;;24.33;38.92;99603.66;4194743;34;33451;-90
2023/05/05 11:34:18;;;;;;;;;;;;;;;26.17;35.50;99604.75;4194795;34;34241;-91
2023/05/05 11:36:56;;;;;;;;;;;;;;;26.78;33.83;99600.34;4196056;34;36116;-90
2023/05/05 11:39:30;;;;;;;;;;;;;;;26.47;34.03;99599.91;4195321;34;35132;-91
2023/05/05 11:42:11;;;;;;;;;;;;;;;25.88;33.76;99596.97;4182822;34;32256;-90
2023/05/05 11:44:44;;;;;;;;;;;;;;;26.20;34.19;99583.19;4196031;34;35002;-91
2023/05/05 11:47:13;;;;;;;;;;;;;;;25.62;35.81;99580.97;4187863;34;34869;-91
2023/05/05 11:49:44;;;;;;;;;;;;;;;24.77;36.93;99578.66;4195046;34;34622;-91
2023/05/05 11:52:25;;;;;;;;;;;;;;;24.39;34.70;99583.81;4186725;34;33818;-91
2023/05/05 11:55:09;;;;;;;;;;;;;;;24.69;36.28;99578.31;4180711;34;34171;-91
2023/05/05 11:57:58;;;;;;;;;;;;;;;24.29;35.83;99575.53;4195187;28;36405;-90
2023/05/05 12:00:36;;;;;;;;;;;;;;;25.07;32.10;99580.25;4153548;34;32663;-91
2023/05/05 12:03:05;;;;;;;;;;;;;;;24.70;36.71;99573.84;4178047;28;33214;-90
2023/05/05 12:05:34;;;;;;;;;;;;;;;24.88;35.12;99571.75;4182209;34;34385;-91
2023/05/05 12:08:09;;;;;;;;;;;;;;;24.29;36.53;99570.22;4170585;34;35555;-91
2023/05/05 12:10:40;;;;;;;;;;;;;;;25.19;36.17;99567.91;4170103;34;35031;-92
2023/05/05 12:13:20;;;;;;;;;;;;;;;24.87;35.64;99559.41;4177199;28;33583;-91
2023/05/05 12:15:50;;;;;;;;;;;;;;;24.79;37.39;99559.91;4191247;34;34167;-91
2023/05/05 12:18:19;;;;;;;;;;;;;;;24.12;38.65;99559.78;4172590;34;34504;-90
2023/05/05 12:20:47;;;;;;;;;;;;;;;23.43;36.29;99556.91;4186004;29;35354;-91
2023/05/05 12:23:18;;;;;;;;;;;;;;;23.00;37.40;99557.63;4197396;34;34338;-91
2023/05/05 12:25:46;;;;;;;;;;;;;;;23.59;36.14;99554.16;4192841;34;35028;-91
2023/05/05 12:28:14;;;;;;;;;;;;;;;24.10;35.72;99551.06;4193424;34;35931;-91
2023/05/05 12:30:43;;;;;;;;;;;;;;;24.76;34.25;99555.66;4180118;34;35203;-91
2023/05/05 12:33:11;;;;;;;;;;;;;;;24.81;33.10;99552.66;4191501;34;33171;-91
2023/05/05 12:35:42;;;;;;;;;;;;;;;25.32;32.38;99552.78;4194365;34;34074;-91
2023/05/05 12:38:10;;;;;;;;;;;;;;;25.27;32.68;99559.41;4195898;34;35724;-91
2023/05/05 12:40:43;;;;;;;;;;;;;;;24.53;35.10;99548.28;4183400;34;35486;-90
2023/05/05 12:43:30;;;;;;;;;;;;;;;24.91;34.76;99547.59;4184275;34;33930;-91
2023/05/05 12:46:08;;;;;;;;;;;;;;;25.27;37.35;99543.41;4197685;34;35026;-92
2023/05/05 12:48:43;;;;;;;;;;;;;;;25.28;34.41;99545.13;4199628;34;35722;-91
2023/05/05 12:51:17;;;;;;;;;;;;;;;24.85;37.74;99538.22;4195352;34;34504;-91
2023/05/05 12:53:49;;;;;;;;;;;;;;;25.68;36.95;99542.38;4183688;34;33265;-91
2023/05/05 12:56:37;;;;;;;;;;;;;;;26.03;34.06;99533.69;4183872;34;34201;-92
2023/05/05 12:59:06;;;;;;;;;;;;;;;25.43;37.93;99533.44;4197872;34;33866;-92
2023/05/05 13:01:34;;;;;;;;;;;;;;;25.20;40.02;99526.97;4185138;34;34573;-92
2023/05/05 13:04:06;;;;;;;;;;;;;;;25.03;37.66;99529.94;4195178;34;33144;-92
2023/05/05 13:06:34;;;;;;;;;;;;;;;24.41;39.31;99523.34;4193842;34;34891;-91
2023/05/05 13:09:03;;;;;;;;;;;;;;;25.16;34.51;99520.97;4196912;34;34976;-91
2023/05/05 13:11:36;;;;;;;;;;;;;;;25.01;36.50;99522.06;4171332;34;35166;-91
2023/05/05 13:14:07;;;;;;;;;;;;;;;25.07;33.89;99507.44;4198407;28;34082;-91
2023/05/05 13:17:34;;;;;;;;;;;;;;;24.52;37.97;99509.31;4162116;34;35300;-92
2023/05/05 13:20:06;;;;;;;;;;;;;;;24.58;36.86;99500.94;4170854;34;34792;-91
2023/05/05 13:23:02;;;;;;;;;;;;;;;25.53;35.42;99506.97;4191302;28;34771;-91
2023/05/05 13:26:17;;;;;;;;;;;;;;;26.27;32.57;99499.88;4201537;28;33814;-90
2023/05/05 13:29:48;;;;;;;;;;;;;;;26.76;30.21;99491.91;4255211;28;35367;-90
2023/05/05 13:33:29;;;;;;;;;;;;;;;25.25;32.11;99490.22;4164220;34;36762;-90
2023/05/05 13:36:26;;;;;;;;;;;;;;;25.53;36.64;99482.97;4174816;29;34709;-90
2023/05/05 13:39:47;;;;;;;;;;;;;;;25.90;33.18;99483.84;4118630;34;33675;-91
2023/05/05 13:47:15;;;;;;;;;;;;;;;24.75;34.45;99476.69;4155116;29;36873;-90
2023/05/05 13:50:44;;;;;;;;;;;;;;;24.83;37.16;99467.34;4120993;34;35426;-91